aviador You're here:

MMLP Decoded Metar

LA PAZ in MEXICO
Report Time2017-06-23 21:42:00
UTC Time2017-06-23 22:30:41
Flight Rules vfr VFR
Wind240° at 08 kt
W.Decomp.*RWY 18: 5.1 kt HW 6.1 kt RCW
W.Rank240° ranks 19
Current wind is above 240° avg. (7.5)
Visibility9999 m
Phenomena:N/A
Clouds:N/A
Expected CloudBase > 9,600 ft AGL from Temp-Dew spread
CeilingNone
Temp36°C (ISA +21)
Dew Point12°C (23% RH)
Heat Index34.7°C
AAT33.6°C
QNH1008 hPa
Density Alt2,822 ft
Elevation69 ft
Report Wrong Elevation
Raw Report
METAR MMLP 232142Z 24008KT 10SM SKC 36/12 A2976 RMK ISL CC=

Extra information for MMLP:More info

Metar Taf Metar & Taf Last 4 Metars F.Rules Stats Wind Profile Meteogram Temp Stats Airport Information Weather charts Add Link Nearby VenuesMetar ALERT Operation Metar Decoded Social comments